sensor_id;sensor_type;location;lat;lon;timestamp;pressure;altitude;pressure_sealevel;temperature;humidity
51452;BME280;37521;52.020;-1.740;2022-11-24T00:01:18;98082.94;;;3.19;100.00
51452;BME280;37521;52.020;-1.740;2022-11-24T00:03:52;98082.38;;;3.12;100.00
51452;BME280;37521;52.020;-1.740;2022-11-24T00:06:21;98099.22;;;3.05;100.00
51452;BME280;37521;52.020;-1.740;2022-11-24T00:08:49;98092.78;;;2.95;100.00
51452;BME280;37521;52.020;-1.740;2022-11-24T00:11:20;98104.41;;;2.88;100.00
51452;BME280;37521;52.020;-1.740;2022-11-24T00:13:49;98105.56;;;2.81;100.00
51452;BME280;37521;52.020;-1.740;2022-11-24T00:16:20;98110.94;;;2.78;100.00
51452;BME280;37521;52.020;-1.740;2022-11-24T00:18:50;98121.19;;;2.81;100.00
51452;BME280;37521;52.020;-1.740;2022-11-24T00:21:20;98124.72;;;2.80;100.00
51452;BME280;37521;52.020;-1.740;2022-11-24T00:23:48;98137.97;;;2.75;100.00
51452;BME280;37521;52.020;-1.740;2022-11-24T00:26:19;98131.28;;;2.69;100.00
51452;BME280;37521;52.020;-1.740;2022-11-24T00:28:49;98140.91;;;2.67;100.00
51452;BME280;37521;52.020;-1.740;2022-11-24T00:31:20;98143.50;;;2.67;100.00
51452;BME280;37521;52.020;-1.740;2022-11-24T00:33:50;98147.09;;;2.65;100.00
51452;BME280;37521;52.020;-1.740;2022-11-24T00:36:20;98138.19;;;2.70;100.00
51452;BME280;37521;52.020;-1.740;2022-11-24T00:38:52;98145.91;;;2.72;100.00
51452;BME280;37521;52.020;-1.740;2022-11-24T00:41:21;98146.50;;;2.79;100.00
51452;BME280;37521;52.020;-1.740;2022-11-24T00:43:49;98142.63;;;2.87;100.00
51452;BME280;37521;52.020;-1.740;2022-11-24T00:46:19;98157.09;;;2.94;100.00
51452;BME280;37521;52.020;-1.740;2022-11-24T00:48:48;98161.38;;;2.95;100.00
51452;BME280;37521;52.020;-1.740;2022-11-24T00:51:17;98158.72;;;2.97;100.00
51452;BME280;37521;52.020;-1.740;2022-11-24T00:53:46;98161.66;;;2.89;100.00
51452;BME280;37521;52.020;-1.740;2022-11-24T00:56:14;98173.06;;;2.87;100.00
51452;BME280;37521;52.020;-1.740;2022-11-24T00:58:43;98160.09;;;2.85;100.00
51452;BME280;37521;52.020;-1.740;2022-11-24T01:01:12;98167.22;;;2.82;100.00
51452;BME280;37521;52.020;-1.740;2022-11-24T01:03:43;98172.69;;;2.76;100.00
51452;BME280;37521;52.020;-1.740;2022-11-24T01:06:14;98179.09;;;2.68;100.00
51452;BME280;37521;52.020;-1.740;2022-11-24T01:08:43;98186.00;;;2.69;100.00
51452;BME280;37521;52.020;-1.740;2022-11-24T01:11:14;98183.47;;;2.68;100.00
51452;BME280;37521;52.020;-1.740;2022-11-24T01:13:44;98188.69;;;2.68;100.00
51452;BME280;37521;52.020;-1.740;2022-11-24T01:16:14;98200.06;;;2.65;100.00
51452;BME280;37521;52.020;-1.740;2022-11-24T01:18:45;98197.53;;;2.64;100.00
51452;BME280;37521;52.020;-1.740;2022-11-24T01:21:14;98202.00;;;2.60;100.00
51452;BME280;37521;52.020;-1.740;2022-11-24T01:23:42;98212.44;;;2.60;100.00
51452;BME280;37521;52.020;-1.740;2022-11-24T01:26:13;98215.03;;;2.60;100.00
51452;BME280;37521;52.020;-1.740;2022-11-24T01:28:41;98222.75;;;2.63;100.00
51452;BME280;37521;52.020;-1.740;2022-11-24T01:31:14;98220.91;;;2.65;100.00
51452;BME280;37521;52.020;-1.740;2022-11-24T01:33:42;98218.38;;;2.64;100.00
51452;BME280;37521;52.020;-1.740;2022-11-24T01:36:12;98213.09;;;2.65;100.00
51452;BME280;37521;52.020;-1.740;2022-11-24T01:38:40;98212.31;;;2.63;100.00
51452;BME280;37521;52.020;-1.740;2022-11-24T01:41:11;98214.66;;;2.69;100.00
51452;BME280;37521;52.020;-1.740;2022-11-24T01:43:40;98224.16;;;2.70;100.00
51452;BME280;37521;52.020;-1.740;2022-11-24T01:46:16;98237.19;;;2.70;100.00
51452;BME280;37521;52.020;-1.740;2022-11-24T01:48:51;98241.50;;;2.71;100.00
51452;BME280;37521;52.020;-1.740;2022-11-24T01:51:24;98246.59;;;2.75;100.00
51452;BME280;37521;52.020;-1.740;2022-11-24T01:53:56;98262.94;;;2.78;100.00
51452;BME280;37521;52.020;-1.740;2022-11-24T01:56:26;98272.25;;;2.84;100.00
51452;BME280;37521;52.020;-1.740;2022-11-24T01:58:57;98265.34;;;2.83;100.00
51452;BME280;37521;52.020;-1.740;2022-11-24T02:01:27;98262.41;;;2.90;100.00
51452;BME280;37521;52.020;-1.740;2022-11-24T02:03:58;98271.72;;;2.96;100.00
51452;BME280;37521;52.020;-1.740;2022-11-24T02:06:30;98274.19;;;2.99;100.00
51452;BME280;37521;52.020;-1.740;2022-11-24T02:09:03;98269.78;;;3.01;100.00
51452;BME280;37521;52.020;-1.740;2022-11-24T02:11:35;98271.50;;;3.00;100.00
51452;BME280;37521;52.020;-1.740;2022-11-24T02:14:04;98275.75;;;3.03;100.00
51452;BME280;37521;52.020;-1.740;2022-11-24T02:16:34;98279.22;;;3.04;100.00
51452;BME280;37521;52.020;-1.740;2022-11-24T02:19:07;98276.72;;;3.00;100.00
51452;BME280;37521;52.020;-1.740;2022-11-24T02:21:40;98277.59;;;3.01;100.00
51452;BME280;37521;52.020;-1.740;2022-11-24T02:24:15;98287.94;;;3.03;100.00
51452;BME280;37521;52.020;-1.740;2022-11-24T02:26:47;98299.06;;;3.06;100.00
51452;BME280;37521;52.020;-1.740;2022-11-24T02:29:18;98293.53;;;3.14;100.00
51452;BME280;37521;52.020;-1.740;2022-11-24T02:31:50;98293.41;;;3.17;100.00
51452;BME280;37521;52.020;-1.740;2022-11-24T02:34:19;98310.56;;;3.22;100.00
51452;BME280;37521;52.020;-1.740;2022-11-24T02:36:47;98311.91;;;3.31;100.00
51452;BME280;37521;52.020;-1.740;2022-11-24T02:39:16;98314.50;;;3.31;100.00
51452;BME280;37521;52.020;-1.740;2022-11-24T02:41:49;98327.41;;;3.34;100.00
51452;BME280;37521;52.020;-1.740;2022-11-24T02:44:21;98327.34;;;3.36;100.00
51452;BME280;37521;52.020;-1.740;2022-11-24T02:47:00;98335.19;;;3.36;100.00
51452;BME280;37521;52.020;-1.740;2022-11-24T02:49:28;98329.91;;;3.37;100.00
51452;BME280;37521;52.020;-1.740;2022-11-24T02:51:56;98339.41;;;3.38;100.00
51452;BME280;37521;52.020;-1.740;2022-11-24T02:54:25;98341.25;;;3.36;100.00
51452;BME280;37521;52.020;-1.740;2022-11-24T02:56:54;98337.78;;;3.36;100.00
51452;BME280;37521;52.020;-1.740;2022-11-24T02:59:23;98337.00;;;3.34;100.00
51452;BME280;37521;52.020;-1.740;2022-11-24T03:01:51;98338.91;;;3.30;100.00
51452;BME280;37521;52.020;-1.740;2022-11-24T03:04:19;98343.38;;;3.26;100.00
51452;BME280;37521;52.020;-1.740;2022-11-24T03:06:47;98342.81;;;3.20;100.00
51452;BME280;37521;52.020;-1.740;2022-11-24T03:09:15;98361.13;;;3.18;100.00
51452;BME280;37521;52.020;-1.740;2022-11-24T03:11:43;98359.44;;;3.17;100.00
51452;BME280;37521;52.020;-1.740;2022-11-24T03:14:13;98362.16;;;3.14;100.00
51452;BME280;37521;52.020;-1.740;2022-11-24T03:16:41;98365.00;;;3.10;100.00
51452;BME280;37521;52.020;-1.740;2022-11-24T03:19:09;98361.66;;;3.06;100.00
51452;BME280;37521;52.020;-1.740;2022-11-24T03:21:37;98365.31;;;3.02;100.00
51452;BME280;37521;52.020;-1.740;2022-11-24T03:24:05;98361.91;;;3.00;100.00
51452;BME280;37521;52.020;-1.740;2022-11-24T03:26:34;98358.47;;;2.99;100.00
51452;BME280;37521;52.020;-1.740;2022-11-24T03:29:02;98361.22;;;2.96;100.00
51452;BME280;37521;52.020;-1.740;2022-11-24T03:31:31;98377.69;;;2.97;100.00
51452;BME280;37521;52.020;-1.740;2022-11-24T03:34:00;98370.56;;;3.00;100.00
51452;BME280;37521;52.020;-1.740;2022-11-24T03:36:28;98379.13;;;3.04;100.00
51452;BME280;37521;52.020;-1.740;2022-11-24T03:38:56;98386.63;;;3.12;100.00
51452;BME280;37521;52.020;-1.740;2022-11-24T03:41:24;98378.03;;;3.10;100.00
51452;BME280;37521;52.020;-1.740;2022-11-24T03:43:52;98394.78;;;3.04;100.00
51452;BME280;37521;52.020;-1.740;2022-11-24T03:46:20;98387.97;;;3.00;100.00
51452;BME280;37521;52.020;-1.740;2022-11-24T03:48:50;98380.56;;;2.91;100.00
51452;BME280;37521;52.020;-1.740;2022-11-24T03:51:18;98392.16;;;2.84;100.00
51452;BME280;37521;52.020;-1.740;2022-11-24T03:53:46;98390.53;;;2.81;100.00
51452;BME280;37521;52.020;-1.740;2022-11-24T03:56:15;98388.88;;;2.79;100.00
51452;BME280;37521;52.020;-1.740;2022-11-24T03:58:43;98395.25;;;2.71;100.00
51452;BME280;37521;52.020;-1.740;2022-11-24T04:01:11;98396.25;;;2.67;100.00
51452;BME280;37521;52.020;-1.740;2022-11-24T04:03:39;98393.63;;;2.69;100.00
51452;BME280;37521;52.020;-1.740;2022-11-24T04:06:09;98410.09;;;2.69;100.00
51452;BME280;37521;52.020;-1.740;2022-11-24T04:08:37;98406.59;;;2.70;100.00
51452;BME280;37521;52.020;-1.740;2022-11-24T04:11:05;98402.03;;;2.76;100.00
51452;BME280;37521;52.020;-1.740;2022-11-24T04:13:33;98398.28;;;2.83;100.00
51452;BME280;37521;52.020;-1.740;2022-11-24T04:16:04;98418.13;;;2.85;100.00
51452;BME280;37521;52.020;-1.740;2022-11-24T04:18:32;98418.81;;;2.90;100.00
51452;BME280;37521;52.020;-1.740;2022-11-24T04:21:00;98423.03;;;2.93;100.00
51452;BME280;37521;52.020;-1.740;2022-11-24T04:23:30;98428.47;;;2.88;100.00
51452;BME280;37521;52.020;-1.740;2022-11-24T04:25:58;98431.78;;;2.92;100.00
51452;BME280;37521;52.020;-1.740;2022-11-24T04:28:26;98429.75;;;2.98;100.00
51452;BME280;37521;52.020;-1.740;2022-11-24T04:30:54;98429.44;;;3.06;100.00
51452;BME280;37521;52.020;-1.740;2022-11-24T04:33:22;98429.44;;;3.06;100.00
51452;BME280;37521;52.020;-1.740;2022-11-24T04:35:52;98434.91;;;3.00;100.00
51452;BME280;37521;52.020;-1.740;2022-11-24T04:38:20;98436.03;;;2.94;100.00
51452;BME280;37521;52.020;-1.740;2022-11-24T04:41:09;98448.72;;;2.82;100.00
51452;BME280;37521;52.020;-1.740;2022-11-24T04:43:37;98457.84;;;2.70;100.00
51452;BME280;37521;52.020;-1.740;2022-11-24T04:46:08;98457.34;;;2.60;100.00
51452;BME280;37521;52.020;-1.740;2022-11-24T04:48:37;98451.66;;;2.51;100.00
51452;BME280;37521;52.020;-1.740;2022-11-24T04:51:06;98461.59;;;2.41;100.00
51452;BME280;37521;52.020;-1.740;2022-11-24T04:53:34;98458.31;;;2.36;100.00
51452;BME280;37521;52.020;-1.740;2022-11-24T04:56:04;98458.31;;;2.36;100.00
51452;BME280;37521;52.020;-1.740;2022-11-24T04:58:33;98461.47;;;2.44;100.00
51452;BME280;37521;52.020;-1.740;2022-11-24T05:01:06;98458.09;;;2.42;100.00
51452;BME280;37521;52.020;-1.740;2022-11-24T05:03:35;98466.81;;;2.41;100.00
51452;BME280;37521;52.020;-1.740;2022-11-24T05:06:04;98479.47;;;2.50;100.00
51452;BME280;37521;52.020;-1.740;2022-11-24T05:08:34;98466.16;;;2.58;100.00
51452;BME280;37521;52.020;-1.740;2022-11-24T05:11:03;98476.25;;;2.65;100.00
51452;BME280;37521;52.020;-1.740;2022-11-24T05:13:33;98477.97;;;2.66;100.00
51452;BME280;37521;52.020;-1.740;2022-11-24T05:16:01;98483.06;;;2.69;100.00
51452;BME280;37521;52.020;-1.740;2022-11-24T05:18:30;98478.56;;;2.73;100.00
51452;BME280;37521;52.020;-1.740;2022-11-24T05:20:58;98479.31;;;2.77;100.00
51452;BME280;37521;52.020;-1.740;2022-11-24T05:23:26;98489.75;;;2.77;100.00
51452;BME280;37521;52.020;-1.740;2022-11-24T05:25:58;98493.03;;;2.82;100.00
51452;BME280;37521;52.020;-1.740;2022-11-24T05:28:27;98489.25;;;2.89;100.00
51452;BME280;37521;52.020;-1.740;2022-11-24T05:30:59;98490.09;;;2.89;100.00
51452;BME280;37521;52.020;-1.740;2022-11-24T05:33:28;98492.88;;;2.85;100.00
51452;BME280;37521;52.020;-1.740;2022-11-24T05:36:00;98494.72;;;2.83;100.00
51452;BME280;37521;52.020;-1.740;2022-11-24T05:38:29;98505.22;;;2.81;100.00
51452;BME280;37521;52.020;-1.740;2022-11-24T05:40:59;98502.78;;;2.77;100.00
51452;BME280;37521;52.020;-1.740;2022-11-24T05:43:27;98493.50;;;2.69;100.00
51452;BME280;37521;52.020;-1.740;2022-11-24T05:45:59;98489.50;;;2.61;100.00
51452;BME280;37521;52.020;-1.740;2022-11-24T05:48:27;98495.56;;;2.61;100.00
51452;BME280;37521;52.020;-1.740;2022-11-24T05:50:56;98489.91;;;2.72;100.00
51452;BME280;37521;52.020;-1.740;2022-11-24T05:53:25;98485.00;;;2.86;100.00
51452;BME280;37521;52.020;-1.740;2022-11-24T05:55:53;98488.19;;;2.94;100.00
51452;BME280;37521;52.020;-1.740;2022-11-24T05:58:21;98486.34;;;2.96;100.00
51452;BME280;37521;52.020;-1.740;2022-11-24T06:00:49;98487.06;;;3.00;100.00
51452;BME280;37521;52.020;-1.740;2022-11-24T06:03:19;98493.09;;;3.02;100.00
51452;BME280;37521;52.020;-1.740;2022-11-24T06:05:47;98501.63;;;3.06;100.00
51452;BME280;37521;52.020;-1.740;2022-11-24T06:08:15;98499.06;;;3.04;100.00
51452;BME280;37521;52.020;-1.740;2022-11-24T06:10:43;98495.78;;;2.99;100.00
51452;BME280;37521;52.020;-1.740;2022-11-24T06:13:11;98512.41;;;2.96;100.00
51452;BME280;37521;52.020;-1.740;2022-11-24T06:15:39;98512.28;;;2.99;100.00
51452;BME280;37521;52.020;-1.740;2022-11-24T06:18:08;98511.34;;;3.02;100.00
51452;BME280;37521;52.020;-1.740;2022-11-24T06:20:37;98507.66;;;3.06;100.00
51452;BME280;37521;52.020;-1.740;2022-11-24T06:23:05;98502.28;;;3.11;100.00
51452;BME280;37521;52.020;-1.740;2022-11-24T06:25:33;98505.88;;;3.08;100.00
51452;BME280;37521;52.020;-1.740;2022-11-24T06:28:02;98503.91;;;3.13;100.00
51452;BME280;37521;52.020;-1.740;2022-11-24T06:30:31;98501.19;;;3.16;100.00
51452;BME280;37521;52.020;-1.740;2022-11-24T06:33:00;98496.16;;;3.12;100.00
51452;BME280;37521;52.020;-1.740;2022-11-24T06:35:28;98503.91;;;3.13;100.00
51452;BME280;37521;52.020;-1.740;2022-11-24T06:37:57;98511.81;;;3.12;100.00
51452;BME280;37521;52.020;-1.740;2022-11-24T06:40:25;98513.72;;;3.07;100.00
51452;BME280;37521;52.020;-1.740;2022-11-24T06:42:53;98511.34;;;3.02;100.00
51452;BME280;37521;52.020;-1.740;2022-11-24T06:45:22;98517.47;;;3.01;100.00
51452;BME280;37521;52.020;-1.740;2022-11-24T06:47:52;98522.59;;;3.03;100.00
51452;BME280;37521;52.020;-1.740;2022-11-24T06:50:20;98525.94;;;3.06;100.00
51452;BME280;37521;52.020;-1.740;2022-11-24T06:52:48;98530.22;;;3.07;100.00
51452;BME280;37521;52.020;-1.740;2022-11-24T06:55:18;98541.63;;;3.05;100.00
51452;BME280;37521;52.020;-1.740;2022-11-24T06:57:46;98538.97;;;3.06;100.00
51452;BME280;37521;52.020;-1.740;2022-11-24T07:00:15;98536.59;;;3.00;100.00
51452;BME280;37521;52.020;-1.740;2022-11-24T07:02:43;98543.63;;;2.98;100.00
51452;BME280;37521;52.020;-1.740;2022-11-24T07:05:12;98538.34;;;2.99;100.00
51452;BME280;37521;52.020;-1.740;2022-11-24T07:07:40;98536.72;;;2.97;100.00
51452;BME280;37521;52.020;-1.740;2022-11-24T07:10:08;98539.25;;;2.98;100.00
51452;BME280;37521;52.020;-1.740;2022-11-24T07:12:38;98540.13;;;2.99;100.00
51452;BME280;37521;52.020;-1.740;2022-11-24T07:15:07;98544.66;;;2.94;100.00
51452;BME280;37521;52.020;-1.740;2022-11-24T07:17:35;98542.25;;;2.89;100.00
51452;BME280;37521;52.020;-1.740;2022-11-24T07:20:05;98544.09;;;2.86;100.00
51452;BME280;37521;52.020;-1.740;2022-11-24T07:22:34;98553.84;;;2.81;100.00
51452;BME280;37521;52.020;-1.740;2022-11-24T07:25:03;98542.09;;;2.70;100.00
51452;BME280;37521;52.020;-1.740;2022-11-24T07:27:33;98555.22;;;2.67;100.00
51452;BME280;37521;52.020;-1.740;2022-11-24T07:30:03;98550.88;;;2.68;100.00
51452;BME280;37521;52.020;-1.740;2022-11-24T07:32:31;98547.38;;;2.69;100.00
51452;BME280;37521;52.020;-1.740;2022-11-24T07:34:59;98538.56;;;2.71;100.00
51452;BME280;37521;52.020;-1.740;2022-11-24T07:37:28;98545.47;;;2.72;100.00
51452;BME280;37521;52.020;-1.740;2022-11-24T07:39:57;98541.97;;;2.73;100.00
51452;BME280;37521;52.020;-1.740;2022-11-24T07:42:26;98542.09;;;2.70;100.00
51452;BME280;37521;52.020;-1.740;2022-11-24T07:44:54;98543.00;;;2.69;100.00
51452;BME280;37521;52.020;-1.740;2022-11-24T07:47:24;98533.50;;;2.68;100.00
51452;BME280;37521;52.020;-1.740;2022-11-24T07:49:52;98531.78;;;2.67;100.00
51452;BME280;37521;52.020;-1.740;2022-11-24T07:52:20;98538.72;;;2.68;100.00
51452;BME280;37521;52.020;-1.740;2022-11-24T07:54:49;98535.97;;;2.71;100.00
51452;BME280;37521;52.020;-1.740;2022-11-24T07:57:17;98531.53;;;2.73;100.00
51452;BME280;37521;52.020;-1.740;2022-11-24T07:59:45;98535.59;;;2.81;100.00
51452;BME280;37521;52.020;-1.740;2022-11-24T08:02:13;98520.66;;;2.86;100.00
51452;BME280;37521;52.020;-1.740;2022-11-24T08:04:43;98536.84;;;2.94;100.00
51452;BME280;37521;52.020;-1.740;2022-11-24T08:07:11;98534.66;;;3.05;100.00
51452;BME280;37521;52.020;-1.740;2022-11-24T08:09:39;98533.41;;;3.15;100.00
51452;BME280;37521;52.020;-1.740;2022-11-24T08:12:07;98537.38;;;3.24;100.00
51452;BME280;37521;52.020;-1.740;2022-11-24T08:14:35;98532.03;;;3.27;100.00
51452;BME280;37521;52.020;-1.740;2022-11-24T08:17:04;98549.28;;;3.31;100.00
51452;BME280;37521;52.020;-1.740;2022-11-24T08:19:32;98555.28;;;3.33;100.00
51452;BME280;37521;52.020;-1.740;2022-11-24T08:22:02;98550.13;;;3.32;100.00
51452;BME280;37521;52.020;-1.740;2022-11-24T08:24:30;98548.19;;;3.37;100.00
51452;BME280;37521;52.020;-1.740;2022-11-24T08:26:59;98534.88;;;3.43;100.00
51452;BME280;37521;52.020;-1.740;2022-11-24T08:29:27;98544.03;;;3.53;100.00
51452;BME280;37521;52.020;-1.740;2022-11-24T08:31:56;98543.91;;;3.56;100.00
51452;BME280;37521;52.020;-1.740;2022-11-24T08:34:24;98542.75;;;3.63;100.00
51452;BME280;37521;52.020;-1.740;2022-11-24T08:36:52;98552.13;;;3.67;100.00
51452;BME280;37521;52.020;-1.740;2022-11-24T08:39:22;98545.94;;;3.70;100.00
51452;BME280;37521;52.020;-1.740;2022-11-24T08:41:50;98548.31;;;3.76;100.00
51452;BME280;37521;52.020;-1.740;2022-11-24T08:44:18;98547.25;;;3.80;100.00
51452;BME280;37521;52.020;-1.740;2022-11-24T08:46:47;98544.44;;;3.85;100.00
51452;BME280;37521;52.020;-1.740;2022-11-24T08:49:16;98544.44;;;3.85;100.00
51452;BME280;37521;52.020;-1.740;2022-11-24T08:51:44;98549.75;;;3.83;100.00
51452;BME280;37521;52.020;-1.740;2022-11-24T08:54:14;98544.84;;;3.75;100.00
51452;BME280;37521;52.020;-1.740;2022-11-24T08:56:48;98546.78;;;3.70;100.00
51452;BME280;37521;52.020;-1.740;2022-11-24T08:59:16;98545.22;;;3.66;100.00
51452;BME280;37521;52.020;-1.740;2022-11-24T09:01:44;98543.41;;;3.68;100.00
51452;BME280;37521;52.020;-1.740;2022-11-24T09:04:13;98544.13;;;3.72;100.00
51452;BME280;37521;52.020;-1.740;2022-11-24T09:06:41;98539.63;;;3.75;100.00
51452;BME280;37521;52.020;-1.740;2022-11-24T09:09:09;98528.25;;;3.76;100.00
51452;BME280;37521;52.020;-1.740;2022-11-24T09:11:37;98509.84;;;3.79;100.00
51452;BME280;37521;52.020;-1.740;2022-11-24T09:14:07;98505.44;;;3.81;100.00
51452;BME280;37521;52.020;-1.740;2022-11-24T09:16:35;98505.69;;;3.75;100.00
51452;BME280;37521;52.020;-1.740;2022-11-24T09:19:04;98500.00;;;3.66;100.00
51452;BME280;37521;52.020;-1.740;2022-11-24T09:21:34;98491.50;;;3.61;100.00
51452;BME280;37521;52.020;-1.740;2022-11-24T09:24:05;98496.53;;;3.65;100.00
51452;BME280;37521;52.020;-1.740;2022-11-24T09:26:36;98497.72;;;3.78;100.00
51452;BME280;37521;52.020;-1.740;2022-11-24T09:29:11;98481.94;;;4.00;100.00
51452;BME280;37521;52.020;-1.740;2022-11-24T09:31:39;98491.59;;;4.19;100.00
51452;BME280;37521;52.020;-1.740;2022-11-24T09:34:11;98482.09;;;4.36;100.00
51452;BME280;37521;52.020;-1.740;2022-11-24T09:36:40;98481.38;;;4.52;100.00
51452;BME280;37521;52.020;-1.740;2022-11-24T09:39:08;98480.88;;;4.62;100.00
51452;BME280;37521;52.020;-1.740;2022-11-24T09:41:45;98479.75;;;4.68;100.00
51452;BME280;37521;52.020;-1.740;2022-11-24T09:44:35;98474.09;;;4.77;100.00
51452;BME280;37521;52.020;-1.740;2022-11-24T09:47:14;98478.28;;;4.99;100.00
51452;BME280;37521;52.020;-1.740;2022-11-24T09:49:49;98460.84;;;5.16;100.00
51452;BME280;37521;52.020;-1.740;2022-11-24T09:52:24;98456.84;;;5.27;100.00
51452;BME280;37521;52.020;-1.740;2022-11-24T09:55:02;98442.53;;;5.34;100.00
51452;BME280;37521;52.020;-1.740;2022-11-24T09:57:33;98450.78;;;5.43;100.00
51452;BME280;37521;52.020;-1.740;2022-11-24T10:00:11;98443.09;;;5.58;100.00
51452;BME280;37521;52.020;-1.740;2022-11-24T10:02:39;98445.16;;;5.68;100.00
51452;BME280;37521;52.020;-1.740;2022-11-24T10:05:11;98428.25;;;5.74;100.00
51452;BME280;37521;52.020;-1.740;2022-11-24T10:07:44;98431.41;;;5.81;100.00
51452;BME280;37521;52.020;-1.740;2022-11-24T10:10:17;98429.97;;;5.92;100.00
51452;BME280;37521;52.020;-1.740;2022-11-24T10:12:58;98431.00;;;6.06;100.00
51452;BME280;37521;52.020;-1.740;2022-11-24T10:15:40;98427.66;;;6.19;100.00
51452;BME280;37521;52.020;-1.740;2022-11-24T10:18:23;98412.78;;;6.36;100.00
51452;BME280;37521;52.020;-1.740;2022-11-24T10:21:01;98414.81;;;6.46;100.00
51452;BME280;37521;52.020;-1.740;2022-11-24T10:23:44;98385.69;;;6.67;100.00
51452;BME280;37521;52.020;-1.740;2022-11-24T10:26:18;98403.84;;;7.01;100.00
51452;BME280;37521;52.020;-1.740;2022-11-24T10:28:51;98392.66;;;7.28;100.00
51452;BME280;37521;52.020;-1.740;2022-11-24T10:31:23;98389.53;;;7.37;100.00
51452;BME280;37521;52.020;-1.740;2022-11-24T10:33:57;98379.97;;;7.36;100.00
51452;BME280;37521;52.020;-1.740;2022-11-24T10:36:34;98370.56;;;7.32;100.00
51452;BME280;37521;52.020;-1.740;2022-11-24T10:39:11;98377.59;;;7.31;100.00
51452;BME280;37521;52.020;-1.740;2022-11-24T10:41:49;98382.00;;;7.31;100.00
51452;BME280;37521;52.020;-1.740;2022-11-24T10:44:19;98367.00;;;7.33;100.00
51452;BME280;37521;52.020;-1.740;2022-11-24T10:46:48;98370.66;;;7.30;100.00
51452;BME280;37521;52.020;-1.740;2022-11-24T10:49:20;98372.50;;;7.28;100.00
51452;BME280;37521;52.020;-1.740;2022-11-24T10:51:58;98372.81;;;7.24;100.00
51452;BME280;37521;52.020;-1.740;2022-11-24T10:54:31;98361.34;;;7.25;100.00
51452;BME280;37521;52.020;-1.740;2022-11-24T10:57:01;98352.53;;;7.26;100.00
51452;BME280;37521;52.020;-1.740;2022-11-24T10:59:35;98354.06;;;7.30;100.00
51452;BME280;37521;52.020;-1.740;2022-11-24T11:02:27;98333.72;;;7.33;100.00
51452;BME280;37521;52.020;-1.740;2022-11-24T11:04:56;98340.38;;;7.39;100.00
51452;BME280;37521;52.020;-1.740;2022-11-24T11:07:25;98324.81;;;7.50;100.00
51452;BME280;37521;52.020;-1.740;2022-11-24T11:12:55;98314.31;;;7.79;100.00
51452;BME280;37521;52.020;-1.740;2022-11-24T11:15:25;98303.03;;;7.91;100.00
51452;BME280;37521;52.020;-1.740;2022-11-24T11:17:58;98297.19;;;8.00;100.00
51452;BME280;37521;52.020;-1.740;2022-11-24T11:20:29;98283.66;;;8.06;100.00
51452;BME280;37521;52.020;-1.740;2022-11-24T11:23:01;98286.63;;;8.14;100.00
51452;BME280;37521;52.020;-1.740;2022-11-24T11:25:32;98260.91;;;8.19;100.00
51452;BME280;37521;52.020;-1.740;2022-11-24T11:28:20;98246.41;;;8.27;100.00
51452;BME280;37521;52.020;-1.740;2022-11-24T11:31:15;98259.19;;;8.33;100.00
51452;BME280;37521;52.020;-1.740;2022-11-24T11:33:58;98244.34;;;8.32;100.00
51452;BME280;37521;52.020;-1.740;2022-11-24T11:36:39;98238.34;;;8.30;100.00
51452;BME280;37521;52.020;-1.740;2022-11-24T11:39:19;98251.28;;;8.33;100.00
51452;BME280;37521;52.020;-1.740;2022-11-24T11:41:51;98235.31;;;8.36;100.00
51452;BME280;37521;52.020;-1.740;2022-11-24T11:44:28;98231.31;;;8.30;100.00
51452;BME280;37521;52.020;-1.740;2022-11-24T11:47:07;98231.38;;;8.29;100.00
51452;BME280;37521;52.020;-1.740;2022-11-24T11:49:39;98235.16;;;8.25;100.00
51452;BME280;37521;52.020;-1.740;2022-11-24T11:52:26;98220.13;;;8.27;100.00
51452;BME280;37521;52.020;-1.740;2022-11-24T11:55:12;98227.84;;;8.30;100.00
51452;BME280;37521;52.020;-1.740;2022-11-24T11:57:48;98213.84;;;8.29;100.00
51452;BME280;37521;52.020;-1.740;2022-11-24T12:00:21;98211.28;;;8.28;100.00
51452;BME280;37521;52.020;-1.740;2022-11-24T12:03:04;98198.31;;;8.39;100.00
51452;BME280;37521;52.020;-1.740;2022-11-24T12:05:46;98184.22;;;8.40;100.00
51452;BME280;37521;52.020;-1.740;2022-11-24T12:08:25;98187.59;;;8.42;100.00
51452;BME280;37521;52.020;-1.740;2022-11-24T12:11:10;98163.63;;;8.46;100.00
51452;BME280;37521;52.020;-1.740;2022-11-24T12:13:46;98158.59;;;8.56;100.00
51452;BME280;37521;52.020;-1.740;2022-11-24T12:16:28;98170.16;;;8.66;100.00
51452;BME280;37521;52.020;-1.740;2022-11-24T12:19:14;98153.31;;;8.82;100.00
51452;BME280;37521;52.020;-1.740;2022-11-24T12:21:54;98168.28;;;8.94;100.00
51452;BME280;37521;52.020;-1.740;2022-11-24T12:24:33;98157.53;;;9.10;100.00
51452;BME280;37521;52.020;-1.740;2022-11-24T12:27:04;98158.88;;;9.02;100.00
51452;BME280;37521;52.020;-1.740;2022-11-24T12:29:43;98162.47;;;8.89;100.00
51452;BME280;37521;52.020;-1.740;2022-11-24T12:32:28;98162.91;;;8.70;100.00
51452;BME280;37521;52.020;-1.740;2022-11-24T12:35:10;98161.66;;;8.63;100.00
51452;BME280;37521;52.020;-1.740;2022-11-24T12:37:53;98150.19;;;8.64;100.00
51452;BME280;37521;52.020;-1.740;2022-11-24T12:40:34;98135.25;;;8.64;100.00
51452;BME280;37521;52.020;-1.740;2022-11-24T12:43:18;98130.41;;;8.71;100.00
51452;BME280;37521;52.020;-1.740;2022-11-24T12:45:53;98127.44;;;8.76;100.00
51452;BME280;37521;52.020;-1.740;2022-11-24T12:48:35;98109.75;;;8.78;100.00
51452;BME280;37521;52.020;-1.740;2022-11-24T12:51:12;98117.00;;;8.74;100.00
51452;BME280;37521;52.020;-1.740;2022-11-24T12:53:45;98110.19;;;8.71;100.00
51452;BME280;37521;52.020;-1.740;2022-11-24T12:56:15;98105.75;;;8.72;100.00
51452;BME280;37521;52.020;-1.740;2022-11-24T12:58:51;98101.34;;;8.72;100.00
51452;BME280;37521;52.020;-1.740;2022-11-24T13:01:29;98101.22;;;8.74;100.00
51452;BME280;37521;52.020;-1.740;2022-11-24T13:04:06;98091.47;;;8.76;100.00
51452;BME280;37521;52.020;-1.740;2022-11-24T13:06:45;98092.19;;;8.78;100.00
51452;BME280;37521;52.020;-1.740;2022-11-24T13:09:18;98079.88;;;8.79;100.00
51452;BME280;37521;52.020;-1.740;2022-11-24T13:11:47;98076.81;;;8.72;100.00
51452;BME280;37521;52.020;-1.740;2022-11-24T13:14:19;98059.91;;;8.63;100.00